createdAt,value
2022-11-21T00:00:46.089Z,16.97
2022-11-21T00:03:15.097Z,16.10
2022-11-21T00:05:45.006Z,13.33
2022-11-21T00:08:15.579Z,14.37
2022-11-21T00:10:47.786Z,17.33
2022-11-21T00:16:04.859Z,17.13
2022-11-21T00:18:34.989Z,17.50
2022-11-21T00:21:07.686Z,14.70
2022-11-21T00:23:37.312Z,14.53
2022-11-21T00:26:07.673Z,13.70
2022-11-21T00:28:37.560Z,11.23
2022-11-21T00:31:08.444Z,12.87
2022-11-21T00:33:39.388Z,13.63
2022-11-21T00:36:08.962Z,18.70
2022-11-21T00:38:37.933Z,12.90
2022-11-21T00:41:08.066Z,14.00
2022-11-21T00:43:36.177Z,16.57
2022-11-21T00:46:04.773Z,9.50
2022-11-21T00:48:34.096Z,10.90
2022-11-21T00:51:02.925Z,13.33
2022-11-21T00:53:32.066Z,13.43
2022-11-21T00:56:00.660Z,15.70
2022-11-21T00:58:30.013Z,13.13
2022-11-21T01:01:06.908Z,15.23
2022-11-21T01:03:35.606Z,12.60
2022-11-21T01:06:05.980Z,12.60
2022-11-21T01:08:36.171Z,12.00
2022-11-21T01:11:05.368Z,12.13
2022-11-21T01:13:35.953Z,11.27
2022-11-21T01:16:05.763Z,8.77
2022-11-21T01:18:34.870Z,11.07
2022-11-21T01:21:03.062Z,12.30
2022-11-21T01:23:32.429Z,11.10
2022-11-21T01:26:03.484Z,14.10
2022-11-21T01:28:34.559Z,10.70
2022-11-21T01:31:17.360Z,10.77
2022-11-21T01:33:48.489Z,11.40
2022-11-21T01:36:18.390Z,12.23
2022-11-21T01:38:48.821Z,12.10
2022-11-21T01:41:18.908Z,12.43
2022-11-21T01:43:50.995Z,11.23
2022-11-21T01:46:23.010Z,9.97
2022-11-21T01:49:02.135Z,12.60
2022-11-21T01:51:34.366Z,12.60
2022-11-21T01:54:13.209Z,14.43
2022-11-21T01:56:46.233Z,13.10
2022-11-21T01:59:21.035Z,11.37
2022-11-21T02:01:51.925Z,12.83
2022-11-21T02:04:21.433Z,14.27
2022-11-21T02:06:49.823Z,14.53
2022-11-21T02:09:19.694Z,12.50
2022-11-21T02:11:50.830Z,13.80
2022-11-21T02:14:24.604Z,11.70
2022-11-21T02:16:53.146Z,14.80
2022-11-21T02:19:29.208Z,13.60
2022-11-21T02:22:02.214Z,13.17
2022-11-21T02:24:38.945Z,16.30
2022-11-21T02:27:08.880Z,15.07
2022-11-21T02:29:36.954Z,13.57
2022-11-21T02:32:06.923Z,17.10
2022-11-21T02:34:35.148Z,13.27
2022-11-21T02:37:04.315Z,13.70
2022-11-21T02:39:36.226Z,13.50
2022-11-21T02:42:14.034Z,15.47
2022-11-21T02:44:52.569Z,15.63
2022-11-21T02:47:22.636Z,14.13
2022-11-21T02:49:58.064Z,13.47
2022-11-21T02:52:26.543Z,13.20
2022-11-21T02:54:55.075Z,12.87
2022-11-21T02:57:27.049Z,11.37
2022-11-21T02:59:55.077Z,10.80
2022-11-21T03:02:27.016Z,12.97
2022-11-21T03:04:58.014Z,13.53
2022-11-21T03:07:26.641Z,11.10
2022-11-21T03:09:54.694Z,11.20
2022-11-21T03:12:26.758Z,11.00
2022-11-21T03:14:54.780Z,11.83
2022-11-21T03:17:23.770Z,11.60
2022-11-21T03:19:54.609Z,15.30
2022-11-21T03:22:30.831Z,13.40
2022-11-21T03:27:45.571Z,12.17
2022-11-21T03:30:14.437Z,11.90
2022-11-21T03:32:44.245Z,14.07
2022-11-21T03:35:12.302Z,16.23
2022-11-21T03:37:41.243Z,14.37
2022-11-21T03:40:10.432Z,14.80
2022-11-21T03:42:38.607Z,15.00
2022-11-21T03:45:12.518Z,15.63
2022-11-21T03:47:40.543Z,16.47
2022-11-21T03:50:11.109Z,18.37
2022-11-21T03:52:39.114Z,16.00
2022-11-21T03:55:08.273Z,21.53
2022-11-21T03:57:37.392Z,16.90
2022-11-21T04:00:06.051Z,19.20
2022-11-21T04:02:37.936Z,15.50
2022-11-21T04:05:07.333Z,16.70
2022-11-21T04:07:37.669Z,18.17
2022-11-21T04:10:07.349Z,19.10
2022-11-21T04:12:35.341Z,19.50
2022-11-21T04:15:12.137Z,18.83
2022-11-21T04:17:43.847Z,22.30
2022-11-21T04:20:12.637Z,23.43
2022-11-21T04:22:41.320Z,19.83
2022-11-21T04:25:10.287Z,23.03
2022-11-21T04:27:38.498Z,23.57
2022-11-21T04:30:07.541Z,24.70
2022-11-21T04:32:35.974Z,22.87
2022-11-21T04:35:05.973Z,23.87
2022-11-21T04:37:36.744Z,24.73
2022-11-21T04:40:07.202Z,20.70
2022-11-21T04:43:00.367Z,22.00
2022-11-21T04:45:29.442Z,22.43
2022-11-21T04:48:00.134Z,23.13
2022-11-21T04:50:33.416Z,25.37
2022-11-21T04:53:01.777Z,20.60
2022-11-21T04:55:33.225Z,22.00
2022-11-21T04:58:02.131Z,26.23
2022-11-21T05:00:30.427Z,25.47
2022-11-21T05:03:04.182Z,25.37
2022-11-21T05:05:34.332Z,23.03
2022-11-21T05:08:02.869Z,27.30
2022-11-21T05:10:31.336Z,23.37
2022-11-21T05:13:19.652Z,22.60
2022-11-21T05:15:51.846Z,23.27
2022-11-21T05:18:20.656Z,27.13
2022-11-21T05:20:50.181Z,29.67
2022-11-21T05:23:21.258Z,24.30
2022-11-21T05:25:49.349Z,31.73
2022-11-21T05:28:17.420Z,35.97
2022-11-21T05:30:46.036Z,29.23
2022-11-21T05:33:14.042Z,28.53
2022-11-21T05:35:43.793Z,26.57
2022-11-21T05:38:13.356Z,27.40
2022-11-21T05:40:41.758Z,36.17
2022-11-21T05:43:32.393Z,32.30
2022-11-21T05:46:00.400Z,30.00
2022-11-21T05:48:30.510Z,28.00
2022-11-21T05:50:59.353Z,32.63
2022-11-21T05:53:29.113Z,34.27
2022-11-21T05:55:57.634Z,30.63
2022-11-21T05:58:26.104Z,29.23
2022-11-21T06:01:00.091Z,33.97
2022-11-21T06:03:31.203Z,33.30
2022-11-21T06:06:12.304Z,32.93
2022-11-21T06:08:44.370Z,29.50
2022-11-21T06:11:14.693Z,28.97
2022-11-21T06:13:43.451Z,40.57
2022-11-21T06:16:13.812Z,30.67
2022-11-21T06:18:45.600Z,33.20
2022-11-21T06:21:16.416Z,30.60
2022-11-21T06:23:46.753Z,34.33
2022-11-21T06:26:16.972Z,30.40
2022-11-21T06:28:45.977Z,28.07
2022-11-21T06:31:17.710Z,32.53
2022-11-21T06:33:50.002Z,29.77
2022-11-21T06:36:18.653Z,47.60
2022-11-21T06:38:50.535Z,32.73
2022-11-21T06:41:22.992Z,33.00
2022-11-21T06:43:51.582Z,37.77
2022-11-21T06:46:19.975Z,34.03
2022-11-21T06:48:48.380Z,33.90
2022-11-21T06:51:19.277Z,32.67
2022-11-21T06:53:55.587Z,33.47
2022-11-21T06:56:24.769Z,35.70
2022-11-21T06:58:52.789Z,32.43
2022-11-21T07:01:23.579Z,36.50
2022-11-21T07:03:56.646Z,36.77
2022-11-21T07:06:24.925Z,34.10
2022-11-21T07:09:25.213Z,27.43
2022-11-21T07:11:44.718Z,35.97
2022-11-21T07:14:12.467Z,35.97
2022-11-21T07:16:40.728Z,35.80
2022-11-21T07:19:08.721Z,37.73
2022-11-21T07:21:37.170Z,31.33
2022-11-21T07:24:07.530Z,29.67
2022-11-21T07:26:35.975Z,33.40
2022-11-21T07:29:04.947Z,31.87
2022-11-21T07:31:33.173Z,29.37
2022-11-21T07:34:01.145Z,30.53
2022-11-21T07:36:32.420Z,33.13
2022-11-21T07:39:00.939Z,26.70
2022-11-21T07:41:30.308Z,27.57
2022-11-21T07:43:58.495Z,34.97
2022-11-21T07:46:26.881Z,30.27
2022-11-21T07:48:58.316Z,26.37
2022-11-21T07:51:32.190Z,30.57
2022-11-21T07:54:01.204Z,31.23
2022-11-21T07:56:30.647Z,30.10
2022-11-21T07:58:59.003Z,31.67
2022-11-21T08:01:27.550Z,31.13
2022-11-21T08:03:56.073Z,30.60
2022-11-21T08:06:24.037Z,27.63
2022-11-21T08:08:54.498Z,36.03
2022-11-21T08:11:22.680Z,30.37
2022-11-21T08:13:54.309Z,31.77
2022-11-21T08:16:28.009Z,34.80
2022-11-21T08:18:59.031Z,30.73
2022-11-21T08:21:28.194Z,31.70
2022-11-21T08:23:56.232Z,33.30
2022-11-21T08:26:26.879Z,29.63
2022-11-21T08:29:00.021Z,31.40
2022-11-21T08:31:28.919Z,31.73
2022-11-21T08:34:03.354Z,33.67
2022-11-21T08:36:32.279Z,33.57
2022-11-21T08:39:00.458Z,34.70
2022-11-21T08:41:46.294Z,32.80
2022-11-21T08:44:19.121Z,33.63
2022-11-21T08:46:47.620Z,34.97
2022-11-21T08:49:15.739Z,34.57
2022-11-21T08:51:43.849Z,36.43
2022-11-21T08:54:12.254Z,35.10
2022-11-21T08:56:42.397Z,28.20
2022-11-21T08:59:12.950Z,33.00
2022-11-21T09:01:42.951Z,38.47
2022-11-21T09:04:13.676Z,38.43
2022-11-21T09:06:41.862Z,30.23
2022-11-21T09:09:12.034Z,32.87
2022-11-21T09:11:40.231Z,36.20
2022-11-21T09:14:26.513Z,35.40
2022-11-21T09:17:13.613Z,36.50
2022-11-21T09:19:42.224Z,29.50
2022-11-21T09:24:54.861Z,34.83
2022-11-21T09:27:25.441Z,36.03
2022-11-21T09:30:01.457Z,33.47
2022-11-21T09:32:31.917Z,36.57
2022-11-21T09:35:00.756Z,34.40
2022-11-21T09:37:31.380Z,37.30
2022-11-21T09:40:00.001Z,32.80
2022-11-21T09:42:45.304Z,35.17
2022-11-21T09:45:17.756Z,35.80
2022-11-21T09:47:50.652Z,38.93
2022-11-21T09:50:30.189Z,33.73
2022-11-21T09:53:07.159Z,42.33
2022-11-21T09:55:43.578Z,39.93
2022-11-21T09:58:20.296Z,37.30
2022-11-21T10:00:55.940Z,38.07
2022-11-21T10:03:30.545Z,40.53
2022-11-21T10:06:02.870Z,41.10
2022-11-21T10:08:42.614Z,39.57
2022-11-21T10:11:22.792Z,44.13
2022-11-21T10:14:08.112Z,49.80
2022-11-21T10:16:45.152Z,40.67
2022-11-21T10:19:44.624Z,35.73
2022-11-21T10:22:31.856Z,45.07
2022-11-21T10:25:07.448Z,32.87
2022-11-21T10:27:42.956Z,42.60
2022-11-21T10:30:16.894Z,39.70
2022-11-21T10:32:51.590Z,52.37
2022-11-21T10:35:24.412Z,49.63
2022-11-21T10:37:57.390Z,44.07
2022-11-21T10:40:35.202Z,41.50
2022-11-21T10:43:28.456Z,41.83
2022-11-21T10:45:56.879Z,33.53
2022-11-21T10:48:24.964Z,48.27
2022-11-21T10:51:11.262Z,42.00
2022-11-21T10:54:04.656Z,45.20
2022-11-21T10:56:37.943Z,38.37
2022-11-21T10:59:22.585Z,46.00
2022-11-21T11:02:00.206Z,50.30
2022-11-21T11:04:43.954Z,45.73
2022-11-21T11:07:29.843Z,39.70
2022-11-21T11:10:16.729Z,43.53
2022-11-21T11:13:05.168Z,42.30
2022-11-21T11:15:54.780Z,35.77
2022-11-21T11:18:25.189Z,46.53
2022-11-21T11:20:54.134Z,37.90
2022-11-21T11:23:32.391Z,51.23
2022-11-21T11:26:01.287Z,44.50
2022-11-21T11:28:36.972Z,58.63
2022-11-21T11:31:05.051Z,39.93
2022-11-21T11:33:36.583Z,37.03
2022-11-21T11:36:32.115Z,47.23
2022-11-21T11:39:18.030Z,34.50
2022-11-21T11:42:29.888Z,40.73
2022-11-21T11:45:36.517Z,36.20
2022-11-21T11:48:10.044Z,36.50
2022-11-21T11:50:46.305Z,22.90
2022-11-21T11:53:19.305Z,24.93
2022-11-21T11:55:54.689Z,27.37
2022-11-21T11:58:31.673Z,23.60
2022-11-21T12:01:04.925Z,30.47
2022-11-21T12:03:57.841Z,24.67
2022-11-21T12:07:10.644Z,18.67
2022-11-21T12:09:28.475Z,19.70
2022-11-21T12:12:16.592Z,29.40
2022-11-21T12:15:13.867Z,14.27
2022-11-21T12:17:48.341Z,18.93
2022-11-21T12:20:24.665Z,20.73
2022-11-21T12:22:55.120Z,17.60
2022-11-21T12:25:30.390Z,18.40
2022-11-21T12:28:02.701Z,20.93
2022-11-21T12:30:55.082Z,14.60
2022-11-21T12:33:24.456Z,12.23
2022-11-21T12:36:21.114Z,14.33
2022-11-21T12:39:17.256Z,15.03
2022-11-21T12:42:11.821Z,12.90
2022-11-21T12:45:03.169Z,9.50
2022-11-21T12:48:16.788Z,12.50
2022-11-21T12:51:11.854Z,12.73
2022-11-21T12:54:04.315Z,13.20
2022-11-21T12:56:43.078Z,14.47
2022-11-21T12:59:14.895Z,13.53
2022-11-21T13:01:55.531Z,12.67
2022-11-21T13:04:26.080Z,15.70
2022-11-21T13:06:57.147Z,14.13
2022-11-21T13:09:28.422Z,13.97
2022-11-21T13:12:05.656Z,15.63
2022-11-21T13:14:48.385Z,16.10
2022-11-21T13:17:28.084Z,14.07
2022-11-21T13:20:04.092Z,14.63
2022-11-21T13:22:55.527Z,15.20
2022-11-21T13:25:47.876Z,14.73
2022-11-21T13:28:42.270Z,13.20
2022-11-21T13:31:35.645Z,18.17
2022-11-21T13:34:05.636Z,17.00
2022-11-21T13:36:46.428Z,15.23
2022-11-21T13:39:30.103Z,11.43
2022-11-21T13:42:33.238Z,16.17
2022-11-21T13:45:38.494Z,9.83
2022-11-21T13:48:51.976Z,9.53
2022-11-21T13:51:52.095Z,12.27
2022-11-21T13:55:05.305Z,11.33
2022-11-21T13:57:49.788Z,15.93
2022-11-21T14:00:58.354Z,11.17
2022-11-21T14:03:53.549Z,12.53
2022-11-21T14:06:34.970Z,14.80
2022-11-21T14:09:26.041Z,10.50
2022-11-21T14:11:57.907Z,11.70
2022-11-21T14:14:39.628Z,15.03
2022-11-21T14:17:44.878Z,12.63
2022-11-21T14:20:20.216Z,11.73
2022-11-21T14:22:56.871Z,11.53
2022-11-21T14:25:34.040Z,12.40
2022-11-21T14:28:05.214Z,8.07
2022-11-21T14:30:37.043Z,11.27
2022-11-21T14:33:28.106Z,12.90
2022-11-21T14:36:08.826Z,9.77
2022-11-21T14:38:44.528Z,11.90
2022-11-21T14:41:38.948Z,9.77
2022-11-21T14:44:19.244Z,13.30
2022-11-21T14:46:48.968Z,8.23
2022-11-21T14:49:31.733Z,10.53
2022-11-21T14:52:07.185Z,15.30
2022-11-21T14:55:13.452Z,11.83
2022-11-21T14:57:42.278Z,17.90
2022-11-21T15:00:43.115Z,15.27
2022-11-21T15:03:06.914Z,11.23
2022-11-21T15:11:19.086Z,14.23
2022-11-21T15:16:43.321Z,9.07
2022-11-21T15:19:12.471Z,15.17
2022-11-21T15:21:46.757Z,10.60
2022-11-21T15:24:19.534Z,15.93
2022-11-21T15:26:51.186Z,9.90
2022-11-21T15:29:29.742Z,17.30
2022-11-21T15:32:09.160Z,8.57
2022-11-21T15:34:41.545Z,8.40
2022-11-21T15:37:28.135Z,13.10
2022-11-21T15:39:56.333Z,6.87
2022-11-21T15:42:47.179Z,9.90
2022-11-21T15:45:28.405Z,10.50
2022-11-21T15:47:57.005Z,9.03
2022-11-21T15:50:26.148Z,8.40
2022-11-21T15:52:54.984Z,10.40
2022-11-21T15:55:26.618Z,8.80
2022-11-21T15:57:56.016Z,5.20
2022-11-21T16:00:27.241Z,4.13
2022-11-21T16:02:56.166Z,4.77
2022-11-21T16:05:24.774Z,4.30
2022-11-21T16:07:53.109Z,5.37
2022-11-21T16:10:27.564Z,8.40
2022-11-21T16:12:57.748Z,6.33
2022-11-21T16:15:25.861Z,7.43
2022-11-21T16:17:54.556Z,7.53
2022-11-21T16:20:22.952Z,7.57
2022-11-21T16:22:51.030Z,3.70
2022-11-21T16:25:19.704Z,6.33
2022-11-21T16:27:47.727Z,7.37
2022-11-21T16:30:17.391Z,10.20
2022-11-21T16:32:47.112Z,3.70
2022-11-21T16:35:15.636Z,7.43
2022-11-21T16:37:44.618Z,4.50
2022-11-21T16:40:13.025Z,2.70
2022-11-21T16:42:41.829Z,3.33
2022-11-21T16:45:17.463Z,6.70
2022-11-21T16:47:48.947Z,5.77
2022-11-21T16:50:18.694Z,6.43
2022-11-21T16:52:47.830Z,9.37
2022-11-21T16:55:15.939Z,3.80
2022-11-21T16:57:44.380Z,6.03
2022-11-21T17:00:13.936Z,8.03
2022-11-21T17:02:43.321Z,6.83
2022-11-21T17:05:14.402Z,6.40
2022-11-21T17:07:43.905Z,11.83
2022-11-21T17:10:12.787Z,4.27
2022-11-21T17:12:44.197Z,5.00
2022-11-21T17:15:14.157Z,2.70
2022-11-21T17:17:45.109Z,3.00
2022-11-21T17:20:13.577Z,6.90
2022-11-21T17:22:41.543Z,5.13
2022-11-21T17:25:10.674Z,5.43
2022-11-21T17:27:38.652Z,6.80
2022-11-21T17:30:08.396Z,2.10
2022-11-21T17:32:36.897Z,6.13
2022-11-21T17:35:07.976Z,3.37
2022-11-21T17:37:36.464Z,8.33
2022-11-21T17:40:06.569Z,4.90
2022-11-21T17:42:35.619Z,6.40
2022-11-21T17:45:03.645Z,5.70
2022-11-21T17:47:33.992Z,6.07
2022-11-21T17:50:10.655Z,7.27
2022-11-21T17:52:38.732Z,3.00
2022-11-21T17:55:07.274Z,5.13
2022-11-21T17:57:35.860Z,5.13
2022-11-21T18:00:05.209Z,2.47
2022-11-21T18:02:38.581Z,9.70
2022-11-21T18:05:08.258Z,5.87
2022-11-21T18:07:37.830Z,6.20
2022-11-21T18:10:35.255Z,9.20
2022-11-21T18:12:56.605Z,5.57
2022-11-21T18:15:24.581Z,6.43
2022-11-21T18:17:59.551Z,5.77
2022-11-21T18:20:39.024Z,5.43
2022-11-21T18:23:08.178Z,8.70
2022-11-21T18:25:39.441Z,6.60
2022-11-21T18:28:08.394Z,5.43
2022-11-21T18:30:36.477Z,4.37
2022-11-21T18:33:05.022Z,5.60
2022-11-21T18:35:34.762Z,5.53
2022-11-21T18:38:03.365Z,3.83
2022-11-21T18:40:31.334Z,7.33
2022-11-21T18:42:59.957Z,4.60
2022-11-21T18:45:27.937Z,5.50
2022-11-21T18:47:56.530Z,7.43
2022-11-21T18:50:24.900Z,6.87
2022-11-21T18:52:54.443Z,6.97
2022-11-21T18:55:23.355Z,6.20
2022-11-21T18:57:54.806Z,4.57
2022-11-21T19:00:25.320Z,4.90
2022-11-21T19:02:53.685Z,5.93
2022-11-21T19:05:28.438Z,3.60
2022-11-21T19:07:57.795Z,6.27
2022-11-21T19:10:42.548Z,6.60
2022-11-21T19:13:12.061Z,7.00
2022-11-21T19:15:42.413Z,6.27
2022-11-21T19:18:11.084Z,8.77
2022-11-21T19:20:42.011Z,5.67
2022-11-21T19:23:13.938Z,8.03
2022-11-21T19:25:42.397Z,5.27
2022-11-21T19:28:10.388Z,10.10
2022-11-21T19:30:38.433Z,5.77
2022-11-21T19:33:06.910Z,5.67
2022-11-21T19:35:35.280Z,6.10
2022-11-21T19:38:06.151Z,8.33
2022-11-21T19:40:51.766Z,5.87
2022-11-21T19:43:22.119Z,5.20
2022-11-21T19:45:57.906Z,10.60
2022-11-21T19:48:26.649Z,2.80
2022-11-21T19:51:07.007Z,5.70
2022-11-21T19:53:38.729Z,5.10
2022-11-21T19:56:22.210Z,5.27
2022-11-21T19:58:51.476Z,7.43
2022-11-21T20:01:21.889Z,5.27
2022-11-21T20:03:52.434Z,6.10
2022-11-21T20:06:22.532Z,7.17
2022-11-21T20:08:51.709Z,7.67
2022-11-21T20:11:25.740Z,5.23
2022-11-21T20:13:54.716Z,6.83
2022-11-21T20:16:25.397Z,8.03
2022-11-21T20:18:57.141Z,4.80
2022-11-21T20:21:28.456Z,6.00
2022-11-21T20:23:57.007Z,4.93
2022-11-21T20:26:27.769Z,6.30
2022-11-21T20:28:56.505Z,4.53
2022-11-21T20:31:28.440Z,6.50
2022-11-21T20:34:00.528Z,2.87
2022-11-21T20:36:31.520Z,4.60
2022-11-21T20:39:01.185Z,3.70
2022-11-21T20:41:39.239Z,4.50
2022-11-21T20:46:57.577Z,5.60
2022-11-21T20:49:25.554Z,3.77
2022-11-21T20:54:42.662Z,7.43
2022-11-21T20:57:15.210Z,8.20
2022-11-21T20:59:46.465Z,4.97
2022-11-21T21:02:17.403Z,5.00
2022-11-21T21:04:45.569Z,3.20
2022-11-21T21:07:13.802Z,5.20
2022-11-21T21:09:42.048Z,7.00
2022-11-21T21:12:11.430Z,7.03
2022-11-21T21:14:40.186Z,6.80
2022-11-21T21:17:08.314Z,5.13
2022-11-21T21:19:36.733Z,4.47
2022-11-21T21:22:06.185Z,6.23
2022-11-21T21:24:34.234Z,10.43
2022-11-21T21:27:02.184Z,7.60
2022-11-21T21:29:32.464Z,7.57
2022-11-21T21:32:00.838Z,6.67
2022-11-21T21:34:31.100Z,5.83
2022-11-21T21:36:59.725Z,6.03
2022-11-21T21:39:28.136Z,10.03
2022-11-21T21:41:56.690Z,11.30
2022-11-21T21:44:32.734Z,5.13
2022-11-21T21:47:03.944Z,8.33
2022-11-21T21:49:32.219Z,7.60
2022-11-21T21:52:00.226Z,7.43
2022-11-21T21:54:29.663Z,13.73
2022-11-21T21:56:59.151Z,8.47
2022-11-21T21:59:27.101Z,6.03
2022-11-21T22:01:56.475Z,6.47
2022-11-21T22:04:26.242Z,5.60
2022-11-21T22:06:54.482Z,6.77
2022-11-21T22:09:22.519Z,3.53
2022-11-21T22:11:50.559Z,5.43
2022-11-21T22:14:20.377Z,4.00
2022-11-21T22:19:33.682Z,6.93
2022-11-21T22:22:01.725Z,4.30
2022-11-21T22:24:29.842Z,11.30
2022-11-21T22:27:05.607Z,8.07
2022-11-21T22:29:33.806Z,4.50
2022-11-21T22:32:01.945Z,4.47
2022-11-21T22:34:31.903Z,16.00
2022-11-21T22:37:04.327Z,3.47
2022-11-21T22:39:32.937Z,5.83
2022-11-21T22:42:01.771Z,4.97
2022-11-21T22:44:30.367Z,12.13
2022-11-21T22:46:58.550Z,6.30
2022-11-21T22:49:27.543Z,4.13
2022-11-21T22:51:57.406Z,6.33
2022-11-21T22:54:30.642Z,6.97
2022-11-21T22:57:06.550Z,5.97
2022-11-21T22:59:35.622Z,5.77
2022-11-21T23:02:03.927Z,2.67
2022-11-21T23:04:32.392Z,4.67
2022-11-21T23:07:00.976Z,4.03
2022-11-21T23:09:33.030Z,1.90
2022-11-21T23:12:01.825Z,4.10
2022-11-21T23:14:30.138Z,2.43
2022-11-21T23:16:58.792Z,5.50
2022-11-21T23:19:27.361Z,8.60
2022-11-21T23:21:55.602Z,3.83
2022-11-21T23:24:23.607Z,3.70
2022-11-21T23:26:54.330Z,4.60
2022-11-21T23:29:24.451Z,3.17
2022-11-21T23:31:54.618Z,2.73
2022-11-21T23:34:22.678Z,1.90
2022-11-21T23:36:50.693Z,3.37
2022-11-21T23:39:24.875Z,6.23
2022-11-21T23:41:54.282Z,6.37
2022-11-21T23:44:23.684Z,2.43
2022-11-21T23:46:51.938Z,2.70
2022-11-21T23:49:20.472Z,3.70
2022-11-21T23:51:48.861Z,2.77
2022-11-21T23:54:19.398Z,3.57
2022-11-21T23:56:49.765Z,5.03
2022-11-21T23:59:20.220Z,2.47
